createdAt,value
2022-07-26T00:01:31.785Z,101315.59
2022-07-26T00:06:35.328Z,101323.59
2022-07-26T00:11:38.315Z,101323.56
2022-07-26T00:16:43.422Z,101314.69
2022-07-26T00:21:46.871Z,101320.03
2022-07-26T00:26:50.269Z,101324.47
2022-07-26T00:31:54.864Z,101318.28
2022-07-26T00:36:57.880Z,101326.22
2022-07-26T00:42:01.036Z,101326.19
2022-07-26T00:47:05.770Z,101338.53
2022-07-26T00:52:10.248Z,101352.69
2022-07-26T00:57:15.234Z,101353.34
2022-07-26T01:02:20.211Z,101359.41
2022-07-26T01:07:23.752Z,101356.63
2022-07-26T01:12:27.257Z,101351.19
2022-07-26T01:17:31.953Z,101349.41
2022-07-26T01:22:39.637Z,101340.56
2022-07-26T01:27:42.917Z,101344.97
2022-07-26T01:32:45.929Z,101354.72
2022-07-26T01:37:50.400Z,101347.56
2022-07-26T01:42:53.305Z,101353.72
2022-07-26T01:47:56.473Z,101364.34
2022-07-26T01:53:01.036Z,101371.38
2022-07-26T01:58:04.259Z,101365.13
2022-07-26T02:03:07.521Z,101372.22
2022-07-26T02:08:12.614Z,101373.94
2022-07-26T02:13:16.357Z,101373.00
2022-07-26T02:18:19.891Z,101372.97
2022-07-26T02:23:24.813Z,101372.00
2022-07-26T02:28:28.663Z,101365.72
2022-07-26T02:33:31.816Z,101387.03
2022-07-26T02:38:36.204Z,101374.59
2022-07-26T02:43:39.140Z,101370.19
2022-07-26T02:48:42.301Z,101378.25
2022-07-26T02:53:47.243Z,101383.69
2022-07-26T02:58:50.814Z,101396.28
2022-07-26T03:03:54.082Z,101393.72
2022-07-26T03:08:58.591Z,101400.88
2022-07-26T03:14:02.036Z,101397.31
2022-07-26T03:19:05.592Z,101405.25
2022-07-26T03:24:10.349Z,101406.13
2022-07-26T03:29:13.770Z,101416.69
2022-07-26T03:34:16.878Z,101415.75
2022-07-26T03:39:21.478Z,101432.59
2022-07-26T03:44:24.484Z,101431.56
2022-07-26T03:49:27.822Z,101435.03
2022-07-26T03:54:32.330Z,101450.03
2022-07-26T03:59:35.807Z,101447.31
2022-07-26T04:04:39.063Z,101449.94
2022-07-26T04:09:59.405Z,101450.88
2022-07-26T04:15:02.426Z,101449.88
2022-07-26T04:20:06.815Z,101451.66
2022-07-26T04:25:11.284Z,101458.66
2022-07-26T04:30:15.623Z,101465.66
2022-07-26T04:35:19.447Z,101457.69
2022-07-26T04:40:24.708Z,101468.34
2022-07-26T04:45:28.075Z,101469.19
2022-07-26T04:50:31.123Z,101463.88
2022-07-26T04:55:35.536Z,101475.34
2022-07-26T05:01:02.840Z,101475.34
2022-07-26T05:06:02.140Z,101477.16
2022-07-26T05:11:06.696Z,101483.47
2022-07-26T05:16:12.026Z,101481.84
2022-07-26T05:21:15.445Z,101484.59
2022-07-26T05:26:19.849Z,101484.59
2022-07-26T05:31:22.970Z,101502.47
2022-07-26T05:36:26.019Z,101495.41
2022-07-26T05:41:30.706Z,101491.09
2022-07-26T05:46:33.855Z,101502.63
2022-07-26T05:51:36.872Z,101494.59
2022-07-26T05:56:41.408Z,101511.59
2022-07-26T06:01:44.665Z,101510.16
2022-07-26T06:06:47.703Z,101504.91
2022-07-26T06:11:52.348Z,101507.84
2022-07-26T06:16:55.721Z,101523.91
2022-07-26T06:21:58.746Z,101539.00
2022-07-26T06:27:04.600Z,101556.53
2022-07-26T06:32:08.600Z,101566.94
2022-07-26T06:37:11.630Z,101573.63
2022-07-26T06:42:16.021Z,101587.09
2022-07-26T06:47:19.005Z,101587.78
2022-07-26T06:52:22.033Z,101594.78
2022-07-26T06:57:26.543Z,101596.97
2022-07-26T07:02:29.567Z,101613.88
2022-07-26T07:07:32.883Z,101614.66
2022-07-26T07:12:38.265Z,101629.03
2022-07-26T07:17:41.273Z,101627.28
2022-07-26T07:22:44.465Z,101628.06
2022-07-26T07:27:49.105Z,101632.59
2022-07-26T07:32:52.426Z,101643.34
2022-07-26T07:37:55.518Z,101644.63
2022-07-26T07:43:00.489Z,101650.47
2022-07-26T07:48:03.618Z,101653.66
2022-07-26T07:53:06.790Z,101657.47
2022-07-26T07:58:11.496Z,101655.91
2022-07-26T08:03:18.816Z,101661.97
2022-07-26T08:08:22.892Z,101668.28
2022-07-26T08:13:27.646Z,101666.81
2022-07-26T08:18:30.649Z,101661.72
2022-07-26T08:23:33.753Z,101660.19
2022-07-26T08:28:48.098Z,101669.25
2022-07-26T08:33:51.763Z,101670.75
2022-07-26T08:38:54.832Z,101681.75
2022-07-26T08:44:06.529Z,101680.81
2022-07-26T08:49:12.765Z,101677.09
2022-07-26T08:54:16.833Z,101688.03
2022-07-26T08:59:22.887Z,101681.09
2022-07-26T09:04:32.093Z,101684.75
2022-07-26T09:09:37.036Z,101684.75
2022-07-26T09:14:41.513Z,101690.09
2022-07-26T09:19:44.668Z,101703.28
2022-07-26T09:24:48.716Z,101713.72
2022-07-26T09:29:54.962Z,101726.75
2022-07-26T09:35:37.013Z,101720.66
2022-07-26T09:40:36.473Z,101729.00
2022-07-26T09:45:41.005Z,101735.31
2022-07-26T09:50:48.458Z,101735.47
2022-07-26T09:55:58.497Z,101738.16
2022-07-26T10:01:03.509Z,101741.69
2022-07-26T10:06:06.882Z,101756.66
2022-07-26T10:11:10.932Z,101756.66
2022-07-26T10:16:33.378Z,101753.97
2022-07-26T10:21:37.429Z,101759.34
2022-07-26T10:26:45.432Z,101762.94
2022-07-26T10:31:51.124Z,101767.41
2022-07-26T10:36:59.430Z,101773.41
2022-07-26T10:42:05.048Z,101783.84
2022-07-26T10:47:18.481Z,101797.25
2022-07-26T10:52:22.801Z,101792.25
2022-07-26T10:57:27.035Z,101787.06
2022-07-26T11:02:33.279Z,101798.66
2022-07-26T11:07:51.725Z,101796.09
2022-07-26T11:13:23.960Z,101799.84
2022-07-26T11:18:32.714Z,101807.84
2022-07-26T11:23:37.149Z,101809.59
2022-07-26T11:28:57.865Z,101808.63
2022-07-26T11:34:02.465Z,101820.97
2022-07-26T11:39:07.844Z,101813.16
2022-07-26T11:44:16.881Z,101813.22
2022-07-26T11:49:25.115Z,101807.84
2022-07-26T11:54:46.047Z,101818.38
2022-07-26T11:59:51.193Z,101823.59
2022-07-26T12:05:15.090Z,101830.72
2022-07-26T12:10:18.261Z,101836.94
2022-07-26T12:15:21.318Z,101836.09
2022-07-26T12:20:28.134Z,101830.88
2022-07-26T12:25:31.407Z,101829.25
2022-07-26T12:30:36.894Z,101829.31
2022-07-26T12:35:41.466Z,101826.63
2022-07-26T12:40:44.654Z,101834.63
2022-07-26T12:45:47.932Z,101837.34
2022-07-26T12:50:52.349Z,101832.88
2022-07-26T12:55:55.423Z,101831.97
2022-07-26T13:00:58.561Z,101836.44
2022-07-26T13:06:03.725Z,101836.50
2022-07-26T13:11:07.021Z,101838.25
2022-07-26T13:16:12.293Z,101826.63
2022-07-26T13:21:17.103Z,101826.69
2022-07-26T13:26:20.087Z,101826.66
2022-07-26T13:31:24.853Z,101829.28
2022-07-26T13:36:29.556Z,101832.94
2022-07-26T13:41:35.728Z,101831.13
2022-07-26T13:46:40.785Z,101832.00
2022-07-26T13:52:00.557Z,101831.16
2022-07-26T13:57:07.979Z,101838.25
2022-07-26T14:02:11.162Z,101842.75
2022-07-26T14:07:15.610Z,101842.75
2022-07-26T14:12:18.786Z,101846.31
2022-07-26T14:17:22.011Z,101848.97
2022-07-26T14:22:26.512Z,101859.69
2022-07-26T14:27:29.606Z,101858.81
2022-07-26T14:32:32.725Z,101863.28
2022-07-26T14:37:42.998Z,101867.75
2022-07-26T14:42:48.525Z,101871.34
2022-07-26T14:47:51.711Z,101868.66
2022-07-26T14:52:56.612Z,101868.69
2022-07-26T14:57:59.625Z,101873.09
2022-07-26T15:03:02.709Z,101874.91
2022-07-26T15:08:07.300Z,101874.00
2022-07-26T15:13:10.556Z,101874.00
2022-07-26T15:18:13.778Z,101866.84
2022-07-26T15:23:18.264Z,101868.63
2022-07-26T15:28:21.629Z,101863.25
2022-07-26T15:33:24.817Z,101868.59
2022-07-26T15:38:29.119Z,101865.06
2022-07-26T15:43:48.937Z,101875.78
2022-07-26T15:48:52.541Z,101890.94
2022-07-26T15:53:57.233Z,101885.44
2022-07-26T15:59:00.394Z,101887.16
2022-07-26T16:04:05.134Z,101884.47
2022-07-26T16:09:19.115Z,101880.78
2022-07-26T16:14:22.707Z,101892.50
2022-07-26T16:19:25.887Z,101894.28
2022-07-26T16:24:30.283Z,101897.06
2022-07-26T16:29:33.385Z,101909.53
2022-07-26T16:34:36.743Z,101911.16
2022-07-26T16:39:41.565Z,101901.31
2022-07-26T16:44:45.167Z,101892.31
2022-07-26T16:49:48.555Z,101893.19
2022-07-26T16:54:52.969Z,101902.91
2022-07-26T16:59:55.945Z,101907.38
2022-07-26T17:04:59.688Z,101924.94
2022-07-26T17:10:05.866Z,101927.38
2022-07-26T17:15:11.037Z,101917.56
2022-07-26T17:20:14.722Z,101908.66
2022-07-26T17:25:19.102Z,101927.25
2022-07-26T17:30:22.431Z,101923.72
2022-07-26T17:35:25.563Z,101930.72
2022-07-26T17:40:31.617Z,101932.53
2022-07-26T17:45:35.433Z,101943.94
2022-07-26T17:50:39.000Z,101939.31
2022-07-26T17:55:43.752Z,101945.31
2022-07-26T18:00:47.311Z,101927.44
2022-07-26T18:05:50.592Z,101915.72
2022-07-26T18:10:55.543Z,101932.66
2022-07-26T18:16:02.806Z,101942.09
2022-07-26T18:21:08.827Z,101937.44
2022-07-26T18:26:13.247Z,101926.78
2022-07-26T18:31:16.430Z,101933.81
2022-07-26T18:36:19.516Z,101919.41
2022-07-26T18:41:23.956Z,101932.69
2022-07-26T18:46:26.981Z,101939.72
2022-07-26T18:51:30.273Z,101925.38
2022-07-26T18:56:38.661Z,101947.44
2022-07-26T19:01:41.994Z,101934.78
2022-07-26T19:06:47.477Z,101943.25
2022-07-26T19:11:54.382Z,101947.47
2022-07-26T19:16:57.533Z,101969.34
2022-07-26T19:22:00.893Z,101965.69
2022-07-26T19:27:19.132Z,101963.75
2022-07-26T19:32:22.690Z,101971.59
2022-07-26T19:37:25.891Z,101967.88
2022-07-26T19:42:32.247Z,101985.41
2022-07-26T19:47:35.782Z,101991.41
2022-07-26T19:52:38.903Z,101993.91
2022-07-26T19:57:43.604Z,101999.25
2022-07-26T20:02:46.796Z,102003.50
2022-07-26T20:07:51.349Z,102006.91
2022-07-26T20:12:55.874Z,102005.06
2022-07-26T20:17:59.194Z,102019.97
2022-07-26T20:23:03.985Z,102013.50
2022-07-26T20:28:08.468Z,102019.47
2022-07-26T20:33:11.692Z,102021.03
2022-07-26T20:38:14.840Z,102022.78
2022-07-26T20:43:21.589Z,102024.28
2022-07-26T20:48:24.970Z,102033.06
2022-07-26T20:53:27.958Z,102037.31
2022-07-26T20:58:32.343Z,102038.94
2022-07-26T21:03:35.577Z,102044.09
2022-07-26T21:08:38.728Z,102045.56
2022-07-26T21:13:43.261Z,102063.16
2022-07-26T21:18:52.917Z,102054.81
2022-07-26T21:23:56.533Z,102062.75
2022-07-26T21:29:03.744Z,102062.41
2022-07-26T21:34:07.243Z,102057.03
2022-07-26T21:39:10.876Z,102065.84
2022-07-26T21:44:15.564Z,102066.41
2022-07-26T21:49:19.465Z,102068.84
2022-07-26T21:54:22.636Z,102068.41
2022-07-26T21:59:27.352Z,102070.75
2022-07-26T22:04:30.910Z,102082.09
2022-07-26T22:09:34.108Z,102079.19
2022-07-26T22:14:38.779Z,102079.72
2022-07-26T22:19:41.897Z,102085.44
2022-07-26T22:24:44.885Z,102094.03
2022-07-26T22:29:49.396Z,102085.78
2022-07-26T22:34:52.334Z,102086.59
2022-07-26T22:39:55.333Z,102077.47
2022-07-26T22:44:59.983Z,102093.19
2022-07-26T22:50:04.522Z,102088.47
2022-07-26T22:55:08.092Z,102097.06
2022-07-26T23:00:15.051Z,102087.16
2022-07-26T23:05:18.093Z,102088.78
2022-07-26T23:10:22.627Z,102075.28
2022-07-26T23:15:27.043Z,102077.00
2022-07-26T23:20:30.227Z,102072.56
2022-07-26T23:25:33.215Z,102074.28
2022-07-26T23:30:37.534Z,102077.72
2022-07-26T23:35:40.659Z,102076.69
2022-07-26T23:40:43.688Z,102081.72
2022-07-26T23:45:48.511Z,102075.28
2022-07-26T23:50:51.831Z,102082.34
2022-07-26T23:55:54.942Z,102085.75
